La Salle, Michigan
Current Conditions -  °F | °C
As of 11:34 AM on Saturday 25 Oct 2014 (Local Time) from KTTF Reporting Station
Haze Haze  
Wind Chill: 61°   Ceiling: 1400
Heat Index: 61°   Visibility: 5mi
Dew Point: 54°   Wind: 17mph
Humidity: 77%   Direction: 260°W
Pressure: 29.82"   Gusts: NA
Location:  41.87°N, 83.45°W
Report Text: KTTF 251534Z AUTO 26015KT 5SM HZ OVC014 16/12 A2982 RMK AO2
Loading
Personal Weather Stations






























Interactive Weather Map
Tropical Storm Tracking
New forecast layout! Learn more

10-Day Weather Forecast

Advertisements
Track Severe Weather on mobile